sensor_id;sensor_type;location;lat;lon;timestamp;temperature;humidity
21830;DHT22;11077;50.264;6.798;2023-10-09T00:00:34;15.30;99.90
21830;DHT22;11077;50.264;6.798;2023-10-09T00:03:28;15.30;99.90
21830;DHT22;11077;50.264;6.798;2023-10-09T00:05:55;15.20;99.90
21830;DHT22;11077;50.264;6.798;2023-10-09T00:08:23;15.30;99.90
21830;DHT22;11077;50.264;6.798;2023-10-09T00:10:57;15.20;99.90
21830;DHT22;11077;50.264;6.798;2023-10-09T00:13:39;15.20;99.90
21830;DHT22;11077;50.264;6.798;2023-10-09T00:16:15;15.20;99.90
21830;DHT22;11077;50.264;6.798;2023-10-09T00:18:51;15.20;99.90
21830;DHT22;11077;50.264;6.798;2023-10-09T00:21:19;15.20;99.90
21830;DHT22;11077;50.264;6.798;2023-10-09T00:23:49;15.20;99.90
21830;DHT22;11077;50.264;6.798;2023-10-09T00:26:21;15.20;99.90
21830;DHT22;11077;50.264;6.798;2023-10-09T00:28:50;15.10;99.90
21830;DHT22;11077;50.264;6.798;2023-10-09T00:31:18;15.20;99.90
21830;DHT22;11077;50.264;6.798;2023-10-09T00:33:55;15.20;99.90
21830;DHT22;11077;50.264;6.798;2023-10-09T00:36:27;15.20;99.90
21830;DHT22;11077;50.264;6.798;2023-10-09T00:38:55;15.20;99.90
21830;DHT22;11077;50.264;6.798;2023-10-09T00:41:26;15.30;99.90
21830;DHT22;11077;50.264;6.798;2023-10-09T00:43:55;15.30;99.90
21830;DHT22;11077;50.264;6.798;2023-10-09T00:46:25;15.30;99.90
21830;DHT22;11077;50.264;6.798;2023-10-09T00:48:59;15.30;99.90
21830;DHT22;11077;50.264;6.798;2023-10-09T00:51:29;15.30;99.90
21830;DHT22;11077;50.264;6.798;2023-10-09T00:54:02;15.30;99.90
21830;DHT22;11077;50.264;6.798;2023-10-09T00:56:34;15.30;99.90
21830;DHT22;11077;50.264;6.798;2023-10-09T00:59:08;15.30;99.90
21830;DHT22;11077;50.264;6.798;2023-10-09T01:01:40;15.30;99.90
21830;DHT22;11077;50.264;6.798;2023-10-09T01:04:16;15.20;99.90
21830;DHT22;11077;50.264;6.798;2023-10-09T01:06:44;15.30;99.90
21830;DHT22;11077;50.264;6.798;2023-10-09T01:09:13;15.30;99.90
21830;DHT22;11077;50.264;6.798;2023-10-09T01:11:43;15.30;99.90
21830;DHT22;11077;50.264;6.798;2023-10-09T01:14:30;15.30;99.90
21830;DHT22;11077;50.264;6.798;2023-10-09T01:17:02;15.30;99.90
21830;DHT22;11077;50.264;6.798;2023-10-09T01:19:34;15.30;99.90
21830;DHT22;11077;50.264;6.798;2023-10-09T01:22:01;15.40;99.90
21830;DHT22;11077;50.264;6.798;2023-10-09T01:24:32;15.40;99.90
21830;DHT22;11077;50.264;6.798;2023-10-09T01:27:04;15.30;99.90
21830;DHT22;11077;50.264;6.798;2023-10-09T01:29:38;15.30;99.90
21830;DHT22;11077;50.264;6.798;2023-10-09T01:32:08;15.30;99.90
21830;DHT22;11077;50.264;6.798;2023-10-09T01:34:43;15.30;99.90
21830;DHT22;11077;50.264;6.798;2023-10-09T01:37:12;15.20;99.90
21830;DHT22;11077;50.264;6.798;2023-10-09T01:39:45;15.20;99.90
21830;DHT22;11077;50.264;6.798;2023-10-09T01:42:14;15.20;99.90
21830;DHT22;11077;50.264;6.798;2023-10-09T01:44:50;15.20;99.90
21830;DHT22;11077;50.264;6.798;2023-10-09T01:47:18;15.20;99.90
21830;DHT22;11077;50.264;6.798;2023-10-09T01:49:47;15.20;99.90
21830;DHT22;11077;50.264;6.798;2023-10-09T01:52:16;15.20;99.90
21830;DHT22;11077;50.264;6.798;2023-10-09T01:54:46;15.10;99.90
21830;DHT22;11077;50.264;6.798;2023-10-09T01:57:15;15.10;99.90
21830;DHT22;11077;50.264;6.798;2023-10-09T01:59:48;15.10;99.90
21830;DHT22;11077;50.264;6.798;2023-10-09T02:02:16;15.10;99.90
21830;DHT22;11077;50.264;6.798;2023-10-09T02:04:53;15.10;99.90
21830;DHT22;11077;50.264;6.798;2023-10-09T02:07:31;15.20;99.90
21830;DHT22;11077;50.264;6.798;2023-10-09T02:10:09;15.10;99.90
21830;DHT22;11077;50.264;6.798;2023-10-09T02:12:47;15.10;99.90
21830;DHT22;11077;50.264;6.798;2023-10-09T02:15:16;15.10;99.90
21830;DHT22;11077;50.264;6.798;2023-10-09T02:18:04;15.10;99.90
21830;DHT22;11077;50.264;6.798;2023-10-09T02:20:42;15.20;99.90
21830;DHT22;11077;50.264;6.798;2023-10-09T02:23:10;15.10;99.90
21830;DHT22;11077;50.264;6.798;2023-10-09T02:25:40;15.10;99.90
21830;DHT22;11077;50.264;6.798;2023-10-09T02:28:10;15.10;99.90
21830;DHT22;11077;50.264;6.798;2023-10-09T02:30:44;15.10;99.90
21830;DHT22;11077;50.264;6.798;2023-10-09T02:33:14;15.20;99.90
21830;DHT22;11077;50.264;6.798;2023-10-09T02:35:46;15.20;99.90
21830;DHT22;11077;50.264;6.798;2023-10-09T02:38:17;15.20;99.90
21830;DHT22;11077;50.264;6.798;2023-10-09T02:40:51;15.20;99.90
21830;DHT22;11077;50.264;6.798;2023-10-09T02:43:35;15.30;99.90
21830;DHT22;11077;50.264;6.798;2023-10-09T02:46:10;15.20;99.90
21830;DHT22;11077;50.264;6.798;2023-10-09T02:48:40;15.30;99.90
21830;DHT22;11077;50.264;6.798;2023-10-09T02:51:13;15.30;99.90
21830;DHT22;11077;50.264;6.798;2023-10-09T02:53:48;15.20;99.90
21830;DHT22;11077;50.264;6.798;2023-10-09T02:56:18;15.20;99.90
21830;DHT22;11077;50.264;6.798;2023-10-09T02:58:50;15.30;99.90
21830;DHT22;11077;50.264;6.798;2023-10-09T03:01:17;15.30;99.90
21830;DHT22;11077;50.264;6.798;2023-10-09T03:03:45;15.30;99.90
21830;DHT22;11077;50.264;6.798;2023-10-09T03:06:13;15.30;99.90
21830;DHT22;11077;50.264;6.798;2023-10-09T03:08:44;15.30;99.90
21830;DHT22;11077;50.264;6.798;2023-10-09T03:11:14;15.30;99.90
21830;DHT22;11077;50.264;6.798;2023-10-09T03:13:43;15.40;99.90
21830;DHT22;11077;50.264;6.798;2023-10-09T03:16:10;15.50;99.90
21830;DHT22;11077;50.264;6.798;2023-10-09T03:18:46;15.50;99.90
21830;DHT22;11077;50.264;6.798;2023-10-09T03:21:14;15.50;99.90
21830;DHT22;11077;50.264;6.798;2023-10-09T03:23:44;15.50;99.90
21830;DHT22;11077;50.264;6.798;2023-10-09T03:26:15;15.60;99.90
21830;DHT22;11077;50.264;6.798;2023-10-09T03:28:45;15.60;99.90
21830;DHT22;11077;50.264;6.798;2023-10-09T03:31:12;15.60;99.90
21830;DHT22;11077;50.264;6.798;2023-10-09T03:33:39;15.60;99.90
21830;DHT22;11077;50.264;6.798;2023-10-09T03:36:07;15.60;99.90
21830;DHT22;11077;50.264;6.798;2023-10-09T03:38:36;15.60;99.90
21830;DHT22;11077;50.264;6.798;2023-10-09T03:41:05;15.60;99.90
21830;DHT22;11077;50.264;6.798;2023-10-09T03:43:33;15.60;99.90
21830;DHT22;11077;50.264;6.798;2023-10-09T03:46:05;15.70;99.90
21830;DHT22;11077;50.264;6.798;2023-10-09T03:48:40;15.60;99.90
21830;DHT22;11077;50.264;6.798;2023-10-09T03:51:09;15.60;99.90
21830;DHT22;11077;50.264;6.798;2023-10-09T03:53:38;15.60;99.90
21830;DHT22;11077;50.264;6.798;2023-10-09T03:56:06;15.70;99.90
21830;DHT22;11077;50.264;6.798;2023-10-09T03:58:38;15.70;99.90
21830;DHT22;11077;50.264;6.798;2023-10-09T04:01:10;15.70;99.90
21830;DHT22;11077;50.264;6.798;2023-10-09T04:03:44;15.70;99.90
21830;DHT22;11077;50.264;6.798;2023-10-09T04:06:11;15.70;99.90
21830;DHT22;11077;50.264;6.798;2023-10-09T04:08:38;15.80;99.90
21830;DHT22;11077;50.264;6.798;2023-10-09T04:11:13;15.70;99.90
21830;DHT22;11077;50.264;6.798;2023-10-09T04:13:44;15.80;99.90
21830;DHT22;11077;50.264;6.798;2023-10-09T04:16:15;15.80;99.90
21830;DHT22;11077;50.264;6.798;2023-10-09T04:19:17;15.80;99.90
21830;DHT22;11077;50.264;6.798;2023-10-09T04:21:48;15.80;99.90
21830;DHT22;11077;50.264;6.798;2023-10-09T04:24:14;15.80;99.90
21830;DHT22;11077;50.264;6.798;2023-10-09T04:26:51;15.80;99.90
21830;DHT22;11077;50.264;6.798;2023-10-09T04:29:24;15.90;99.90
21830;DHT22;11077;50.264;6.798;2023-10-09T04:31:56;15.90;99.90
21830;DHT22;11077;50.264;6.798;2023-10-09T04:34:26;15.90;99.90
21830;DHT22;11077;50.264;6.798;2023-10-09T04:37:01;15.90;99.90
21830;DHT22;11077;50.264;6.798;2023-10-09T04:39:45;15.90;99.90
21830;DHT22;11077;50.264;6.798;2023-10-09T04:42:26;15.80;99.90
21830;DHT22;11077;50.264;6.798;2023-10-09T04:45:03;15.80;99.90
21830;DHT22;11077;50.264;6.798;2023-10-09T04:47:51;15.90;99.90
21830;DHT22;11077;50.264;6.798;2023-10-09T04:50:32;15.80;99.90
21830;DHT22;11077;50.264;6.798;2023-10-09T04:53:28;15.80;99.90
21830;DHT22;11077;50.264;6.798;2023-10-09T04:56:02;15.80;99.90
21830;DHT22;11077;50.264;6.798;2023-10-09T04:58:30;15.80;99.90
21830;DHT22;11077;50.264;6.798;2023-10-09T05:01:05;15.80;99.90
21830;DHT22;11077;50.264;6.798;2023-10-09T05:03:41;15.80;99.90
21830;DHT22;11077;50.264;6.798;2023-10-09T05:06:11;15.80;99.90
21830;DHT22;11077;50.264;6.798;2023-10-09T05:09:09;15.80;99.90
21830;DHT22;11077;50.264;6.798;2023-10-09T05:11:38;15.80;99.90
21830;DHT22;11077;50.264;6.798;2023-10-09T05:14:25;15.80;99.90
21830;DHT22;11077;50.264;6.798;2023-10-09T05:17:05;15.80;99.90
21830;DHT22;11077;50.264;6.798;2023-10-09T05:19:33;15.70;99.90
21830;DHT22;11077;50.264;6.798;2023-10-09T05:22:09;15.60;99.90
21830;DHT22;11077;50.264;6.798;2023-10-09T05:24:43;15.60;99.90
21830;DHT22;11077;50.264;6.798;2023-10-09T05:27:11;15.50;99.90
21830;DHT22;11077;50.264;6.798;2023-10-09T05:30:11;15.50;99.90
21830;DHT22;11077;50.264;6.798;2023-10-09T05:32:54;15.40;99.90
21830;DHT22;11077;50.264;6.798;2023-10-09T05:35:55;15.40;99.90
21830;DHT22;11077;50.264;6.798;2023-10-09T05:38:39;15.30;99.90
21830;DHT22;11077;50.264;6.798;2023-10-09T05:41:12;15.30;99.90
21830;DHT22;11077;50.264;6.798;2023-10-09T05:43:53;15.30;99.90
21830;DHT22;11077;50.264;6.798;2023-10-09T05:46:37;15.30;99.90
21830;DHT22;11077;50.264;6.798;2023-10-09T05:49:15;15.30;99.90
21830;DHT22;11077;50.264;6.798;2023-10-09T05:51:47;15.30;99.90
21830;DHT22;11077;50.264;6.798;2023-10-09T05:54:19;15.20;99.90
21830;DHT22;11077;50.264;6.798;2023-10-09T05:57:04;15.20;99.90
21830;DHT22;11077;50.264;6.798;2023-10-09T05:59:51;15.10;99.90
21830;DHT22;11077;50.264;6.798;2023-10-09T06:02:37;15.20;99.90
21830;DHT22;11077;50.264;6.798;2023-10-09T06:05:22;15.10;99.90
21830;DHT22;11077;50.264;6.798;2023-10-09T06:08:11;15.10;99.90
21830;DHT22;11077;50.264;6.798;2023-10-09T06:10:39;15.10;99.90
21830;DHT22;11077;50.264;6.798;2023-10-09T06:13:07;15.10;99.90
21830;DHT22;11077;50.264;6.798;2023-10-09T06:15:55;15.10;99.90
21830;DHT22;11077;50.264;6.798;2023-10-09T06:18:41;15.10;99.90
21830;DHT22;11077;50.264;6.798;2023-10-09T06:21:20;15.10;99.90
21830;DHT22;11077;50.264;6.798;2023-10-09T06:24:18;15.10;99.90
21830;DHT22;11077;50.264;6.798;2023-10-09T06:26:46;15.10;99.90
21830;DHT22;11077;50.264;6.798;2023-10-09T06:29:33;15.00;99.90
21830;DHT22;11077;50.264;6.798;2023-10-09T06:32:01;15.00;99.90
21830;DHT22;11077;50.264;6.798;2023-10-09T06:34:44;15.00;99.90
21830;DHT22;11077;50.264;6.798;2023-10-09T06:37:13;15.00;99.90
21830;DHT22;11077;50.264;6.798;2023-10-09T06:40:01;15.00;99.90
21830;DHT22;11077;50.264;6.798;2023-10-09T06:43:10;15.00;99.90
21830;DHT22;11077;50.264;6.798;2023-10-09T06:45:43;15.00;99.90
21830;DHT22;11077;50.264;6.798;2023-10-09T06:48:21;15.10;99.90
21830;DHT22;11077;50.264;6.798;2023-10-09T06:51:07;15.10;99.90
21830;DHT22;11077;50.264;6.798;2023-10-09T06:53:39;15.10;99.90
21830;DHT22;11077;50.264;6.798;2023-10-09T06:56:25;15.10;99.90
21830;DHT22;11077;50.264;6.798;2023-10-09T06:59:13;15.10;99.90
21830;DHT22;11077;50.264;6.798;2023-10-09T07:01:43;15.20;99.90
21830;DHT22;11077;50.264;6.798;2023-10-09T07:04:14;15.20;99.90
21830;DHT22;11077;50.264;6.798;2023-10-09T07:07:06;15.20;99.90
21830;DHT22;11077;50.264;6.798;2023-10-09T07:09:35;15.20;99.90
21830;DHT22;11077;50.264;6.798;2023-10-09T07:12:10;15.20;99.90
21830;DHT22;11077;50.264;6.798;2023-10-09T07:14:43;15.20;99.90
21830;DHT22;11077;50.264;6.798;2023-10-09T07:17:47;15.20;99.90
21830;DHT22;11077;50.264;6.798;2023-10-09T07:20:18;15.20;99.90
21830;DHT22;11077;50.264;6.798;2023-10-09T07:22:59;15.20;99.90
21830;DHT22;11077;50.264;6.798;2023-10-09T07:25:40;15.30;99.90
21830;DHT22;11077;50.264;6.798;2023-10-09T07:28:24;15.30;99.90
21830;DHT22;11077;50.264;6.798;2023-10-09T07:31:16;15.30;99.90
21830;DHT22;11077;50.264;6.798;2023-10-09T07:33:51;15.40;99.90
21830;DHT22;11077;50.264;6.798;2023-10-09T07:36:23;15.40;99.90
21830;DHT22;11077;50.264;6.798;2023-10-09T07:39:01;15.40;99.90
21830;DHT22;11077;50.264;6.798;2023-10-09T07:41:32;15.50;99.90
21830;DHT22;11077;50.264;6.798;2023-10-09T07:44:06;15.60;99.90
21830;DHT22;11077;50.264;6.798;2023-10-09T07:47:01;15.60;99.90
21830;DHT22;11077;50.264;6.798;2023-10-09T07:49:44;15.60;99.90
21830;DHT22;11077;50.264;6.798;2023-10-09T07:52:15;15.70;99.90
21830;DHT22;11077;50.264;6.798;2023-10-09T07:54:43;15.70;99.90
21830;DHT22;11077;50.264;6.798;2023-10-09T07:57:21;15.70;99.90
21830;DHT22;11077;50.264;6.798;2023-10-09T07:59:54;15.70;99.90
21830;DHT22;11077;50.264;6.798;2023-10-09T08:02:30;15.70;99.90
21830;DHT22;11077;50.264;6.798;2023-10-09T08:05:01;15.70;99.90
21830;DHT22;11077;50.264;6.798;2023-10-09T08:07:32;15.70;99.90
21830;DHT22;11077;50.264;6.798;2023-10-09T08:10:04;15.80;99.90
21830;DHT22;11077;50.264;6.798;2023-10-09T08:12:49;15.80;99.90
21830;DHT22;11077;50.264;6.798;2023-10-09T08:15:34;15.80;99.90
21830;DHT22;11077;50.264;6.798;2023-10-09T08:18:17;15.80;99.90
21830;DHT22;11077;50.264;6.798;2023-10-09T08:20:54;15.80;99.90
21830;DHT22;11077;50.264;6.798;2023-10-09T08:23:39;15.90;99.90
21830;DHT22;11077;50.264;6.798;2023-10-09T08:26:19;15.80;99.90
21830;DHT22;11077;50.264;6.798;2023-10-09T08:28:56;15.80;99.90
21830;DHT22;11077;50.264;6.798;2023-10-09T08:31:42;15.70;99.90
21830;DHT22;11077;50.264;6.798;2023-10-09T08:34:22;15.70;99.90
21830;DHT22;11077;50.264;6.798;2023-10-09T08:36:52;15.70;99.90
21830;DHT22;11077;50.264;6.798;2023-10-09T08:39:20;15.70;99.90
21830;DHT22;11077;50.264;6.798;2023-10-09T08:41:56;15.80;99.90
21830;DHT22;11077;50.264;6.798;2023-10-09T08:44:25;15.80;99.90
21830;DHT22;11077;50.264;6.798;2023-10-09T08:46:57;15.80;99.90
21830;DHT22;11077;50.264;6.798;2023-10-09T08:49:26;15.90;99.90
21830;DHT22;11077;50.264;6.798;2023-10-09T08:51:54;15.90;99.90
21830;DHT22;11077;50.264;6.798;2023-10-09T08:54:23;16.00;99.90
21830;DHT22;11077;50.264;6.798;2023-10-09T08:56:50;16.10;99.90
21830;DHT22;11077;50.264;6.798;2023-10-09T08:59:17;16.10;99.90
21830;DHT22;11077;50.264;6.798;2023-10-09T09:01:45;16.20;99.90
21830;DHT22;11077;50.264;6.798;2023-10-09T09:04:43;16.20;99.90
21830;DHT22;11077;50.264;6.798;2023-10-09T09:07:26;16.30;99.90
21830;DHT22;11077;50.264;6.798;2023-10-09T09:09:55;16.30;99.90
21830;DHT22;11077;50.264;6.798;2023-10-09T09:12:27;16.40;99.90
21830;DHT22;11077;50.264;6.798;2023-10-09T09:14:57;16.40;99.90
21830;DHT22;11077;50.264;6.798;2023-10-09T09:17:30;16.50;99.90
21830;DHT22;11077;50.264;6.798;2023-10-09T09:20:19;16.50;99.90
21830;DHT22;11077;50.264;6.798;2023-10-09T09:22:52;16.60;99.90
21830;DHT22;11077;50.264;6.798;2023-10-09T09:25:23;16.60;99.90
21830;DHT22;11077;50.264;6.798;2023-10-09T09:27:52;16.60;99.90
21830;DHT22;11077;50.264;6.798;2023-10-09T09:30:23;16.70;99.90
21830;DHT22;11077;50.264;6.798;2023-10-09T09:32:51;16.80;99.90
21830;DHT22;11077;50.264;6.798;2023-10-09T09:35:55;16.90;99.90
21830;DHT22;11077;50.264;6.798;2023-10-09T09:38:28;17.00;99.90
21830;DHT22;11077;50.264;6.798;2023-10-09T09:41:01;17.00;99.90
21830;DHT22;11077;50.264;6.798;2023-10-09T09:43:33;17.00;99.90
21830;DHT22;11077;50.264;6.798;2023-10-09T09:46:02;17.10;99.90
21830;DHT22;11077;50.264;6.798;2023-10-09T09:48:37;17.10;99.90
21830;DHT22;11077;50.264;6.798;2023-10-09T09:51:12;17.20;99.90
21830;DHT22;11077;50.264;6.798;2023-10-09T09:53:41;17.30;99.90
21830;DHT22;11077;50.264;6.798;2023-10-09T09:56:14;17.40;99.90
21830;DHT22;11077;50.264;6.798;2023-10-09T09:58:45;17.50;99.90
21830;DHT22;11077;50.264;6.798;2023-10-09T10:01:14;17.60;99.90
21830;DHT22;11077;50.264;6.798;2023-10-09T10:03:54;17.70;99.90
21830;DHT22;11077;50.264;6.798;2023-10-09T10:06:25;17.80;99.90
21830;DHT22;11077;50.264;6.798;2023-10-09T10:08:54;17.90;99.90
21830;DHT22;11077;50.264;6.798;2023-10-09T10:11:42;18.00;99.90
21830;DHT22;11077;50.264;6.798;2023-10-09T10:14:10;18.20;99.90
21830;DHT22;11077;50.264;6.798;2023-10-09T10:17:09;18.30;99.90
21830;DHT22;11077;50.264;6.798;2023-10-09T10:20:03;18.40;99.90
21830;DHT22;11077;50.264;6.798;2023-10-09T10:22:49;18.50;99.90
21830;DHT22;11077;50.264;6.798;2023-10-09T10:25:35;18.70;99.90
21830;DHT22;11077;50.264;6.798;2023-10-09T10:28:18;18.90;99.90
21830;DHT22;11077;50.264;6.798;2023-10-09T10:30:59;19.10;99.90
21830;DHT22;11077;50.264;6.798;2023-10-09T10:33:29;19.30;99.90
21830;DHT22;11077;50.264;6.798;2023-10-09T10:36:19;19.40;99.90
21830;DHT22;11077;50.264;6.798;2023-10-09T10:38:59;19.50;99.90
21830;DHT22;11077;50.264;6.798;2023-10-09T10:41:31;19.60;99.90
21830;DHT22;11077;50.264;6.798;2023-10-09T10:44:02;19.70;99.90
21830;DHT22;11077;50.264;6.798;2023-10-09T10:46:57;19.80;99.90
21830;DHT22;11077;50.264;6.798;2023-10-09T10:49:24;20.00;99.90
21830;DHT22;11077;50.264;6.798;2023-10-09T10:52:02;20.10;99.90
21830;DHT22;11077;50.264;6.798;2023-10-09T10:54:42;20.20;99.90
21830;DHT22;11077;50.264;6.798;2023-10-09T10:57:19;20.40;99.90
21830;DHT22;11077;50.264;6.798;2023-10-09T10:59:55;20.60;99.90
21830;DHT22;11077;50.264;6.798;2023-10-09T11:02:42;20.80;99.90
21830;DHT22;11077;50.264;6.798;2023-10-09T11:05:10;21.00;99.90
21830;DHT22;11077;50.264;6.798;2023-10-09T11:07:51;21.10;99.90
21830;DHT22;11077;50.264;6.798;2023-10-09T11:10:24;21.30;99.90
21830;DHT22;11077;50.264;6.798;2023-10-09T11:12:58;21.50;99.90
21830;DHT22;11077;50.264;6.798;2023-10-09T11:15:39;21.70;99.90
21830;DHT22;11077;50.264;6.798;2023-10-09T11:18:13;21.90;99.90
21830;DHT22;11077;50.264;6.798;2023-10-09T11:20:49;22.00;99.90
21830;DHT22;11077;50.264;6.798;2023-10-09T11:23:41;22.10;99.90
21830;DHT22;11077;50.264;6.798;2023-10-09T11:26:25;22.30;99.90
21830;DHT22;11077;50.264;6.798;2023-10-09T11:29:08;22.30;99.90
21830;DHT22;11077;50.264;6.798;2023-10-09T11:32:00;22.40;99.90
21830;DHT22;11077;50.264;6.798;2023-10-09T11:34:27;22.40;99.90
21830;DHT22;11077;50.264;6.798;2023-10-09T11:37:00;22.50;99.90
21830;DHT22;11077;50.264;6.798;2023-10-09T11:39:28;22.50;99.90
21830;DHT22;11077;50.264;6.798;2023-10-09T11:42:03;22.50;99.90
21830;DHT22;11077;50.264;6.798;2023-10-09T11:44:39;22.50;99.90
21830;DHT22;11077;50.264;6.798;2023-10-09T11:47:07;22.60;99.90
21830;DHT22;11077;50.264;6.798;2023-10-09T11:49:49;22.60;99.90
21830;DHT22;11077;50.264;6.798;2023-10-09T11:52:23;22.60;99.90
21830;DHT22;11077;50.264;6.798;2023-10-09T11:55:01;22.50;99.90
21830;DHT22;11077;50.264;6.798;2023-10-09T11:57:31;22.50;99.90
21830;DHT22;11077;50.264;6.798;2023-10-09T12:00:00;22.40;99.90
21830;DHT22;11077;50.264;6.798;2023-10-09T12:02:31;22.30;99.90
21830;DHT22;11077;50.264;6.798;2023-10-09T12:04:59;22.20;99.90
21830;DHT22;11077;50.264;6.798;2023-10-09T12:07:26;22.10;99.90
21830;DHT22;11077;50.264;6.798;2023-10-09T12:09:54;22.00;99.90
21830;DHT22;11077;50.264;6.798;2023-10-09T12:12:22;21.80;99.90
21830;DHT22;11077;50.264;6.798;2023-10-09T12:14:54;21.80;99.90
21830;DHT22;11077;50.264;6.798;2023-10-09T12:17:23;21.80;99.90
21830;DHT22;11077;50.264;6.798;2023-10-09T12:19:52;21.80;99.90
21830;DHT22;11077;50.264;6.798;2023-10-09T12:22:22;21.60;99.90
21830;DHT22;11077;50.264;6.798;2023-10-09T12:24:53;21.60;99.90
21830;DHT22;11077;50.264;6.798;2023-10-09T12:27:20;21.60;99.90
21830;DHT22;11077;50.264;6.798;2023-10-09T12:29:48;21.60;99.90
21830;DHT22;11077;50.264;6.798;2023-10-09T12:32:17;21.40;99.90
21830;DHT22;11077;50.264;6.798;2023-10-09T12:34:46;21.30;99.90
21830;DHT22;11077;50.264;6.798;2023-10-09T12:37:16;21.30;99.90
21830;DHT22;11077;50.264;6.798;2023-10-09T12:39:46;21.20;99.90
21830;DHT22;11077;50.264;6.798;2023-10-09T12:42:14;21.10;99.90
21830;DHT22;11077;50.264;6.798;2023-10-09T12:44:42;21.10;99.90
21830;DHT22;11077;50.264;6.798;2023-10-09T12:47:10;21.10;99.90
21830;DHT22;11077;50.264;6.798;2023-10-09T12:49:39;21.10;99.90
21830;DHT22;11077;50.264;6.798;2023-10-09T12:52:08;21.20;99.90
21830;DHT22;11077;50.264;6.798;2023-10-09T12:54:42;21.20;99.90
21830;DHT22;11077;50.264;6.798;2023-10-09T12:57:12;21.10;99.90
21830;DHT22;11077;50.264;6.798;2023-10-09T12:59:41;21.20;99.90
21830;DHT22;11077;50.264;6.798;2023-10-09T13:02:12;21.00;99.90
21830;DHT22;11077;50.264;6.798;2023-10-09T13:04:41;20.90;99.90
21830;DHT22;11077;50.264;6.798;2023-10-09T13:07:08;20.90;99.90
21830;DHT22;11077;50.264;6.798;2023-10-09T13:09:35;20.80;99.90
21830;DHT22;11077;50.264;6.798;2023-10-09T13:12:08;20.80;99.90
21830;DHT22;11077;50.264;6.798;2023-10-09T13:14:38;20.90;99.90
21830;DHT22;11077;50.264;6.798;2023-10-09T13:17:07;20.90;99.90
21830;DHT22;11077;50.264;6.798;2023-10-09T13:19:36;20.90;99.90
21830;DHT22;11077;50.264;6.798;2023-10-09T13:22:05;20.80;99.90
21830;DHT22;11077;50.264;6.798;2023-10-09T13:24:38;20.80;99.90
21830;DHT22;11077;50.264;6.798;2023-10-09T13:27:06;20.70;99.90
21830;DHT22;11077;50.264;6.798;2023-10-09T13:29:36;20.60;99.90
21830;DHT22;11077;50.264;6.798;2023-10-09T13:32:06;20.50;99.90
21830;DHT22;11077;50.264;6.798;2023-10-09T13:34:39;20.40;99.90
21830;DHT22;11077;50.264;6.798;2023-10-09T13:37:12;20.50;99.90
21830;DHT22;11077;50.264;6.798;2023-10-09T13:39:39;20.50;99.90
21830;DHT22;11077;50.264;6.798;2023-10-09T13:42:18;20.50;99.90
21830;DHT22;11077;50.264;6.798;2023-10-09T13:44:45;20.50;99.90
21830;DHT22;11077;50.264;6.798;2023-10-09T13:47:14;20.40;99.90
21830;DHT22;11077;50.264;6.798;2023-10-09T13:49:47;20.40;99.90
21830;DHT22;11077;50.264;6.798;2023-10-09T13:52:18;20.40;99.90
21830;DHT22;11077;50.264;6.798;2023-10-09T13:54:47;20.30;99.90
21830;DHT22;11077;50.264;6.798;2023-10-09T13:57:15;20.30;99.90
21830;DHT22;11077;50.264;6.798;2023-10-09T13:59:43;20.30;99.90
21830;DHT22;11077;50.264;6.798;2023-10-09T14:02:15;20.30;99.90
21830;DHT22;11077;50.264;6.798;2023-10-09T14:04:47;20.30;99.90
21830;DHT22;11077;50.264;6.798;2023-10-09T14:07:16;20.30;99.90
21830;DHT22;11077;50.264;6.798;2023-10-09T14:09:45;20.30;99.90
21830;DHT22;11077;50.264;6.798;2023-10-09T14:12:21;20.30;99.90
21830;DHT22;11077;50.264;6.798;2023-10-09T14:14:52;20.30;99.90
21830;DHT22;11077;50.264;6.798;2023-10-09T14:17:21;20.20;99.90
21830;DHT22;11077;50.264;6.798;2023-10-09T14:19:52;20.10;99.90
21830;DHT22;11077;50.264;6.798;2023-10-09T14:22:23;20.10;99.90
21830;DHT22;11077;50.264;6.798;2023-10-09T14:24:53;20.10;99.90
21830;DHT22;11077;50.264;6.798;2023-10-09T14:27:23;20.10;99.90
21830;DHT22;11077;50.264;6.798;2023-10-09T14:29:53;20.00;99.90
21830;DHT22;11077;50.264;6.798;2023-10-09T14:32:23;20.10;99.90
21830;DHT22;11077;50.264;6.798;2023-10-09T14:34:54;20.00;99.90
21830;DHT22;11077;50.264;6.798;2023-10-09T14:37:28;20.00;99.90
21830;DHT22;11077;50.264;6.798;2023-10-09T14:39:58;20.00;99.90
21830;DHT22;11077;50.264;6.798;2023-10-09T14:42:26;20.00;99.90
21830;DHT22;11077;50.264;6.798;2023-10-09T14:44:54;20.00;99.90
21830;DHT22;11077;50.264;6.798;2023-10-09T14:47:22;20.00;99.90
21830;DHT22;11077;50.264;6.798;2023-10-09T14:49:49;20.00;99.90
21830;DHT22;11077;50.264;6.798;2023-10-09T14:52:19;20.00;99.90
21830;DHT22;11077;50.264;6.798;2023-10-09T14:54:48;19.90;99.90
21830;DHT22;11077;50.264;6.798;2023-10-09T14:57:16;19.90;99.90
21830;DHT22;11077;50.264;6.798;2023-10-09T14:59:44;19.90;99.90
21830;DHT22;11077;50.264;6.798;2023-10-09T15:02:11;20.00;99.90
21830;DHT22;11077;50.264;6.798;2023-10-09T15:04:40;19.90;99.90
21830;DHT22;11077;50.264;6.798;2023-10-09T15:07:07;19.90;99.90
21830;DHT22;11077;50.264;6.798;2023-10-09T15:09:35;19.90;99.90
21830;DHT22;11077;50.264;6.798;2023-10-09T15:12:07;19.90;99.90
21830;DHT22;11077;50.264;6.798;2023-10-09T15:14:34;19.80;99.90
21830;DHT22;11077;50.264;6.798;2023-10-09T15:17:03;19.80;99.90
21830;DHT22;11077;50.264;6.798;2023-10-09T15:19:32;19.80;99.90
21830;DHT22;11077;50.264;6.798;2023-10-09T15:22:00;19.70;99.90
21830;DHT22;11077;50.264;6.798;2023-10-09T15:24:27;19.70;99.90
21830;DHT22;11077;50.264;6.798;2023-10-09T15:26:55;19.60;99.90
21830;DHT22;11077;50.264;6.798;2023-10-09T15:29:26;19.60;99.90
21830;DHT22;11077;50.264;6.798;2023-10-09T15:31:56;19.50;99.90
21830;DHT22;11077;50.264;6.798;2023-10-09T15:34:26;19.50;99.90
21830;DHT22;11077;50.264;6.798;2023-10-09T15:36:57;19.40;99.90
21830;DHT22;11077;50.264;6.798;2023-10-09T15:39:24;19.30;99.90
21830;DHT22;11077;50.264;6.798;2023-10-09T15:41:52;19.30;99.90
21830;DHT22;11077;50.264;6.798;2023-10-09T15:44:19;19.20;99.90
21830;DHT22;11077;50.264;6.798;2023-10-09T15:46:52;19.20;99.90
21830;DHT22;11077;50.264;6.798;2023-10-09T15:49:25;19.10;99.90
21830;DHT22;11077;50.264;6.798;2023-10-09T15:51:56;19.10;99.90
21830;DHT22;11077;50.264;6.798;2023-10-09T15:54:24;19.10;99.90
21830;DHT22;11077;50.264;6.798;2023-10-09T15:56:53;19.00;99.90
21830;DHT22;11077;50.264;6.798;2023-10-09T15:59:22;19.00;99.90
21830;DHT22;11077;50.264;6.798;2023-10-09T16:01:51;19.00;99.90
21830;DHT22;11077;50.264;6.798;2023-10-09T16:04:19;19.00;99.90
21830;DHT22;11077;50.264;6.798;2023-10-09T16:06:46;19.00;99.90
21830;DHT22;11077;50.264;6.798;2023-10-09T16:09:14;19.00;99.90
21830;DHT22;11077;50.264;6.798;2023-10-09T16:11:47;19.00;99.90